Time;durP1;ratioP1;P1;durP2;ratioP2;P2;SDS_P1;SDS_P2;PMS_P1;PMS_P2;Temp;Humidity;BMP_temperature;BMP_pressure;BME280_temperature;BME280_humidity;BME280_pressure;Samples;Min_cycle;Max_cycle;Signal;HPM_P1;HPM_P2
2023/02/02 00:01:12;;;;;;;10.48;2.95;;;8.10;99.90;;;;;;5080119;28;20066;-43
2023/02/02 00:03:38;;;;;;;10.63;3.25;;;8.10;99.90;;;;;;5080034;28;20439;-43
2023/02/02 00:06:04;;;;;;;14.35;3.15;;;8.10;99.90;;;;;;5080439;28;20028;-43
2023/02/02 00:08:30;;;;;;;15.13;3.38;;;8.10;99.90;;;;;;5081205;28;20016;-43
2023/02/02 00:10:56;;;;;;;10.75;2.83;;;8.10;99.90;;;;;;5080437;28;20027;-43
2023/02/02 00:13:22;;;;;;;14.00;3.17;;;8.10;99.90;;;;;;5080221;28;20036;-43
2023/02/02 00:15:47;;;;;;;15.07;3.10;;;8.10;99.90;;;;;;5080959;28;20347;-43
2023/02/02 00:18:13;;;;;;;12.88;3.58;;;8.10;99.90;;;;;;5079988;28;20024;-43
2023/02/02 00:20:38;;;;;;;17.13;3.85;;;8.20;99.90;;;;;;5080810;28;20126;-44
2023/02/02 00:23:04;;;;;;;16.98;3.50;;;8.20;99.90;;;;;;5080853;28;20837;-42
2023/02/02 00:25:30;;;;;;;19.58;3.95;;;8.20;99.90;;;;;;5079951;28;20380;-43
2023/02/02 00:27:56;;;;;;;15.25;3.35;;;8.20;99.90;;;;;;5081028;28;20392;-42
2023/02/02 00:30:21;;;;;;;14.82;3.40;;;8.20;99.90;;;;;;5080921;28;20020;-43
2023/02/02 00:32:49;;;;;;;19.08;3.90;;;8.20;99.90;;;;;;5079950;28;20043;-43
2023/02/02 00:35:15;;;;;;;17.15;4.45;;;8.20;99.90;;;;;;5080638;28;20058;-43
2023/02/02 00:37:41;;;;;;;15.43;3.72;;;8.20;99.90;;;;;;5081032;28;20016;-43
2023/02/02 00:40:07;;;;;;;14.50;2.83;;;8.20;99.90;;;;;;5079823;28;20115;-43
2023/02/02 00:42:33;;;;;;;10.00;2.45;;;8.20;99.90;;;;;;5080617;28;20769;-43
2023/02/02 00:45:16;;;;;;;14.73;2.88;;;8.20;99.90;;;;;;5080357;28;20028;-43
2023/02/02 00:47:48;;;;;;;11.15;2.90;;;8.20;99.90;;;;;;5080484;28;20016;-42
2023/02/02 00:50:16;;;;;;;14.65;3.40;;;8.20;99.90;;;;;;5080122;28;20043;-42
2023/02/02 00:52:42;;;;;;;14.05;2.85;;;8.20;99.90;;;;;;5080345;28;20047;-43
2023/02/02 00:55:08;;;;;;;12.52;2.80;;;8.20;99.90;;;;;;5080195;28;20032;-42
2023/02/02 00:57:34;;;;;;;12.93;2.90;;;8.20;99.90;;;;;;5080725;28;20115;-43
2023/02/02 00:59:59;;;;;;;11.38;3.00;;;8.20;99.90;;;;;;5079655;28;20023;-43
2023/02/02 01:02:25;;;;;;;12.30;2.60;;;8.20;99.90;;;;;;5081007;28;20688;-42
2023/02/02 01:04:51;;;;;;;13.13;3.15;;;8.20;99.90;;;;;;5080904;28;20487;-43
2023/02/02 01:07:16;;;;;;;18.95;4.25;;;8.20;99.90;;;;;;5080001;28;20032;-43
2023/02/02 01:09:42;;;;;;;11.95;2.95;;;8.20;99.90;;;;;;5080374;28;20115;-44
2023/02/02 01:12:08;;;;;;;11.68;2.83;;;8.20;99.90;;;;;;5077012;28;20024;-43
2023/02/02 01:14:33;;;;;;;13.23;3.13;;;8.20;99.90;;;;;;5060887;28;20065;-44
2023/02/02 01:16:59;;;;;;;20.20;3.08;;;8.20;99.90;;;;;;5080296;28;20077;-44
2023/02/02 01:19:24;;;;;;;9.93;2.85;;;8.20;99.90;;;;;;5080971;28;20062;-43
2023/02/02 01:21:50;;;;;;;10.70;2.80;;;8.20;99.90;;;;;;5078601;28;20059;-43
2023/02/02 01:24:16;;;;;;;13.25;2.78;;;8.20;99.90;;;;;;5081824;28;20028;-44
2023/02/02 01:26:41;;;;;;;11.95;3.00;;;8.20;99.90;;;;;;5082876;28;20040;-44
2023/02/02 01:29:07;;;;;;;9.43;2.85;;;8.10;99.90;;;;;;5083288;28;20028;-42
2023/02/02 01:31:33;;;;;;;11.68;2.72;;;8.20;99.90;;;;;;5083986;28;20463;-43
2023/02/02 01:33:58;;;;;;;11.32;2.90;;;8.10;99.90;;;;;;5084390;28;20642;-42
2023/02/02 01:36:24;;;;;;;11.85;3.63;;;8.20;99.90;;;;;;5083245;28;20503;-42
2023/02/02 01:38:50;;;;;;;13.73;3.22;;;8.10;99.90;;;;;;5083151;28;20608;-42
2023/02/02 01:41:19;;;;;;;10.27;2.78;;;8.10;99.90;;;;;;5082723;28;20067;-42
2023/02/02 01:43:44;;;;;;;10.93;2.97;;;8.10;99.90;;;;;;5083507;28;20027;-43
2023/02/02 01:46:18;;;;;;;14.75;3.40;;;8.10;99.90;;;;;;5083094;28;20027;-43
2023/02/02 01:48:53;;;;;;;9.32;2.40;;;8.10;99.90;;;;;;5083100;28;20559;-43
2023/02/02 01:51:23;;;;;;;13.05;3.38;;;8.10;99.90;;;;;;5083680;28;20115;-42
2023/02/02 01:53:52;;;;;;;14.32;2.92;;;8.00;99.90;;;;;;5082894;28;20525;-43
2023/02/02 01:56:25;;;;;;;11.27;2.85;;;8.00;99.90;;;;;;5083471;28;20032;-42
2023/02/02 01:58:51;;;;;;;10.50;2.65;;;8.00;99.90;;;;;;5083270;28;20056;-42
2023/02/02 02:01:16;;;;;;;14.65;3.38;;;8.00;99.90;;;;;;5082494;28;20162;-43
2023/02/02 02:03:42;;;;;;;13.05;3.45;;;8.00;99.90;;;;;;5082387;28;20036;-43
2023/02/02 02:06:12;;;;;;;10.65;2.70;;;8.00;99.90;;;;;;5083075;28;20594;-42
2023/02/02 02:08:48;;;;;;;8.68;2.20;;;8.00;99.90;;;;;;5081780;28;20910;-43
2023/02/02 02:11:14;;;;;;;12.25;2.78;;;8.00;99.90;;;;;;5083014;28;20036;-42
2023/02/02 02:17:21;;;;;;;10.23;2.15;;;7.90;99.90;;;;;;5084223;28;20117;-43
2023/02/02 02:26:34;;;;;;;9.88;1.70;;;7.80;99.90;;;;;;5053428;28;20136;-43
2023/02/02 02:29:18;;;;;;;7.38;1.58;;;7.80;99.90;;;;;;5083231;28;20024;-43
2023/02/02 02:32:02;;;;;;;6.05;2.05;;;7.80;99.90;;;;;;5082363;28;20031;-44
2023/02/02 02:34:58;;;;;;;11.23;1.60;;;7.80;99.90;;;;;;5081309;28;20020;-43
2023/02/02 02:37:32;;;;;;;6.53;1.50;;;7.80;99.90;;;;;;5082200;28;20066;-44
2023/02/02 02:40:06;;;;;;;5.47;1.55;;;7.80;99.90;;;;;;5081864;28;20110;-44
2023/02/02 02:42:37;;;;;;;4.95;1.60;;;7.80;99.90;;;;;;5082424;28;20074;-43
2023/02/02 02:45:05;;;;;;;6.47;1.63;;;7.80;99.90;;;;;;5081907;28;20070;-43
2023/02/02 02:47:32;;;;;;;8.60;1.90;;;7.80;99.90;;;;;;5082322;28;20032;-43
2023/02/02 02:49:57;;;;;;;5.53;2.13;;;7.80;99.90;;;;;;5082136;28;20020;-43
2023/02/02 02:52:23;;;;;;;6.70;2.10;;;7.80;99.90;;;;;;5082259;28;20043;-43
2023/02/02 02:54:51;;;;;;;6.82;2.30;;;7.80;99.90;;;;;;5082357;28;20033;-43
2023/02/02 02:57:26;;;;;;;6.82;2.00;;;7.80;99.90;;;;;;5083100;28;20059;-44
2023/02/02 03:00:31;;;;;;;5.32;1.92;;;7.80;99.90;;;;;;5081436;28;20096;-44
2023/02/02 03:03:17;;;;;;;7.72;2.33;;;7.80;99.90;;;;;;5082658;28;20035;-43
2023/02/02 03:05:51;;;;;;;6.68;2.50;;;7.80;99.90;;;;;;5081859;28;20024;-44
2023/02/02 03:08:39;;;;;;;7.15;2.40;;;7.80;99.90;;;;;;5082771;28;20093;-44
2023/02/02 03:11:07;;;;;;;7.15;2.33;;;7.70;99.90;;;;;;5080353;28;20028;-44
2023/02/02 03:13:33;;;;;;;9.38;2.58;;;7.70;99.90;;;;;;5081353;28;20031;-44
2023/02/02 03:15:59;;;;;;;8.32;2.90;;;7.70;99.90;;;;;;5082101;28;20016;-44
2023/02/02 03:18:27;;;;;;;11.63;2.33;;;7.70;99.90;;;;;;5082869;28;20027;-43
2023/02/02 03:20:53;;;;;;;9.48;2.88;;;7.70;99.90;;;;;;5081049;28;20051;-43
2023/02/02 03:23:19;;;;;;;13.18;2.70;;;7.70;99.90;;;;;;5082594;28;20024;-42
2023/02/02 03:25:45;;;;;;;9.10;2.65;;;7.70;99.90;;;;;;5081814;28;20032;-42
2023/02/02 03:28:11;;;;;;;11.68;2.72;;;7.80;99.90;;;;;;5081226;28;20028;-42
2023/02/02 03:30:38;;;;;;;11.73;2.13;;;7.80;99.90;;;;;;5081808;28;20016;-42
2023/02/02 03:33:04;;;;;;;10.95;2.70;;;7.80;99.90;;;;;;5081428;28;20589;-43
2023/02/02 03:35:33;;;;;;;11.23;2.60;;;7.80;99.90;;;;;;5080797;28;20060;-43
2023/02/02 03:37:58;;;;;;;9.70;2.75;;;7.80;99.90;;;;;;5081795;28;20024;-42
2023/02/02 03:40:24;;;;;;;13.05;3.08;;;7.80;99.90;;;;;;5081421;28;20036;-42
2023/02/02 03:42:49;;;;;;;9.63;2.72;;;7.80;99.90;;;;;;5080547;28;20028;-42
2023/02/02 03:45:15;;;;;;;12.40;3.35;;;7.90;99.90;;;;;;5080989;28;20122;-42
2023/02/02 03:47:40;;;;;;;12.60;2.70;;;7.90;99.90;;;;;;5080582;28;20028;-42
2023/02/02 03:50:07;;;;;;;9.07;2.28;;;7.90;99.90;;;;;;5080403;28;20028;-42
2023/02/02 03:52:33;;;;;;;14.73;3.05;;;7.90;99.90;;;;;;5080874;28;20101;-42
2023/02/02 03:54:58;;;;;;;12.70;3.13;;;7.90;99.90;;;;;;5080686;28;20441;-42
2023/02/02 03:57:24;;;;;;;13.20;3.00;;;8.00;99.90;;;;;;5081123;28;20814;-43
2023/02/02 03:59:49;;;;;;;15.02;3.38;;;8.00;99.90;;;;;;5080668;28;20476;-44
2023/02/02 04:02:15;;;;;;;13.32;3.65;;;8.00;99.90;;;;;;5080488;28;20124;-43
2023/02/02 04:04:40;;;;;;;16.08;3.80;;;8.00;99.90;;;;;;5080875;28;20115;-43
2023/02/02 04:07:06;;;;;;;14.05;3.60;;;8.00;99.90;;;;;;5080996;28;20168;-42
2023/02/02 04:09:32;;;;;;;15.23;3.35;;;8.00;99.90;;;;;;5080629;28;20135;-43
2023/02/02 04:11:58;;;;;;;21.63;4.10;;;8.10;99.90;;;;;;5081448;28;20471;-42
2023/02/02 04:14:23;;;;;;;12.45;3.55;;;8.10;99.90;;;;;;5081407;28;20735;-42
2023/02/02 04:16:49;;;;;;;15.00;3.42;;;8.10;99.90;;;;;;5080062;28;20539;-43
2023/02/02 04:19:15;;;;;;;12.05;3.35;;;8.10;99.90;;;;;;5081006;28;20060;-43
2023/02/02 04:21:41;;;;;;;16.42;3.78;;;8.10;99.90;;;;;;5080883;28;20035;-43
2023/02/02 04:24:10;;;;;;;11.48;3.15;;;8.10;99.90;;;;;;5080220;28;20086;-43
2023/02/02 04:26:36;;;;;;;15.20;4.13;;;8.10;99.90;;;;;;5080998;28;20079;-42
2023/02/02 04:29:01;;;;;;;16.52;3.97;;;8.20;99.90;;;;;;5080934;28;20539;-43
2023/02/02 04:31:28;;;;;;;17.20;3.45;;;8.10;99.90;;;;;;5080609;28;20506;-46
2023/02/02 04:33:54;;;;;;;10.77;3.00;;;8.20;99.90;;;;;;5081468;28;20064;-43
2023/02/02 04:36:20;;;;;;;12.73;3.65;;;8.20;99.90;;;;;;5081520;28;20056;-43
2023/02/02 04:38:49;;;;;;;11.02;3.30;;;8.20;99.90;;;;;;5076993;28;20031;-43
2023/02/02 04:41:15;;;;;;;15.70;3.88;;;8.20;99.90;;;;;;5081271;28;20028;-43
2023/02/02 04:43:40;;;;;;;14.57;3.63;;;8.20;99.90;;;;;;5080928;28;20043;-43
2023/02/02 04:46:06;;;;;;;18.45;3.63;;;8.20;99.90;;;;;;5080045;28;20024;-44
2023/02/02 04:48:32;;;;;;;11.27;2.95;;;8.20;99.90;;;;;;5080873;28;20023;-43
2023/02/02 04:51:02;;;;;;;14.05;3.25;;;8.30;99.90;;;;;;5081241;28;20131;-43
2023/02/02 04:53:28;;;;;;;13.57;3.60;;;8.30;99.90;;;;;;5079218;28;20829;-43
2023/02/02 04:55:54;;;;;;;14.45;4.15;;;8.30;99.90;;;;;;5080929;28;20061;-43
2023/02/02 04:58:19;;;;;;;13.60;3.40;;;8.30;99.90;;;;;;5080020;28;20016;-42
2023/02/02 05:00:45;;;;;;;17.90;3.60;;;8.30;99.90;;;;;;5084335;28;20120;-42
2023/02/02 05:03:11;;;;;;;13.23;3.50;;;8.30;99.90;;;;;;5084592;28;20279;-42
2023/02/02 05:05:36;;;;;;;14.55;3.55;;;8.40;99.90;;;;;;5083294;28;20143;-43
2023/02/02 05:08:02;;;;;;;14.20;3.47;;;8.40;99.90;;;;;;5083864;28;20024;-43
2023/02/02 05:10:27;;;;;;;15.63;3.47;;;8.40;99.90;;;;;;5084728;28;20035;-43
2023/02/02 05:12:54;;;;;;;13.40;3.47;;;8.40;99.90;;;;;;5083644;28;20678;-43
2023/02/02 05:15:20;;;;;;;15.90;2.92;;;8.40;99.90;;;;;;5084180;28;20024;-42
2023/02/02 05:17:49;;;;;;;14.18;3.80;;;8.40;99.90;;;;;;5084040;28;20680;-42
2023/02/02 05:20:15;;;;;;;20.60;3.70;;;8.40;99.90;;;;;;5083875;28;20068;-42
2023/02/02 05:22:41;;;;;;;13.70;3.10;;;8.40;99.90;;;;;;5084809;28;20166;-43
2023/02/02 05:25:08;;;;;;;14.50;2.97;;;8.40;99.90;;;;;;5084193;28;20054;-43
2023/02/02 05:27:33;;;;;;;16.83;3.25;;;8.50;99.90;;;;;;5083428;28;20050;-44
2023/02/02 05:29:59;;;;;;;11.95;3.03;;;8.40;99.90;;;;;;5083467;28;20066;-42
2023/02/02 05:32:26;;;;;;;20.77;3.38;;;8.40;99.90;;;;;;5084519;28;20111;-42
2023/02/02 05:34:52;;;;;;;12.68;3.50;;;8.40;99.90;;;;;;5082927;28;20139;-43
2023/02/02 05:37:17;;;;;;;17.25;3.40;;;8.40;99.90;;;;;;5083975;28;20559;-42
2023/02/02 05:39:43;;;;;;;12.07;3.33;;;8.40;99.90;;;;;;5083292;28;20599;-43
2023/02/02 05:42:08;;;;;;;16.13;3.72;;;8.50;99.90;;;;;;5082099;28;20035;-43
2023/02/02 05:44:34;;;;;;;18.95;3.38;;;8.50;99.90;;;;;;5083286;28;20070;-42
2023/02/02 05:47:00;;;;;;;15.18;3.45;;;8.40;99.90;;;;;;5084416;28;20024;-43
2023/02/02 05:49:25;;;;;;;15.50;3.90;;;8.50;99.90;;;;;;5083143;28;20016;-43
2023/02/02 05:51:54;;;;;;;14.18;3.10;;;8.50;99.90;;;;;;5083309;28;20563;-43
2023/02/02 05:54:20;;;;;;;18.77;3.38;;;8.50;99.90;;;;;;5082952;28;20124;-43
2023/02/02 05:56:47;;;;;;;18.05;3.50;;;8.50;99.90;;;;;;5082932;28;20016;-43
2023/02/02 05:59:12;;;;;;;15.18;3.20;;;8.50;99.90;;;;;;5080144;28;20039;-42
2023/02/02 06:01:38;;;;;;;11.63;3.17;;;8.50;99.90;;;;;;5081719;28;20032;-43
2023/02/02 06:04:03;;;;;;;13.32;3.28;;;8.50;99.90;;;;;;5083172;28;20055;-43
2023/02/02 06:06:29;;;;;;;10.27;3.33;;;8.50;99.90;;;;;;5082565;28;20031;-43
2023/02/02 06:08:54;;;;;;;14.10;3.53;;;8.50;99.90;;;;;;5081983;28;20139;-43
2023/02/02 06:11:20;;;;;;;15.00;2.97;;;8.50;99.90;;;;;;5083868;28;20056;-43
2023/02/02 06:13:49;;;;;;;12.98;3.20;;;8.50;99.90;;;;;;5083691;28;20028;-43
2023/02/02 06:16:14;;;;;;;15.98;4.03;;;8.60;99.90;;;;;;5079333;28;20036;-43
2023/02/02 06:18:40;;;;;;;11.15;2.97;;;8.60;99.90;;;;;;5083398;28;20024;-43
2023/02/02 06:21:06;;;;;;;17.02;3.50;;;8.60;99.90;;;;;;5083331;28;20035;-43
2023/02/02 06:23:33;;;;;;;12.57;3.40;;;8.60;99.90;;;;;;5082301;28;20044;-43
2023/02/02 06:25:59;;;;;;;13.00;3.63;;;8.60;99.90;;;;;;5082565;28;20484;-43
2023/02/02 06:28:25;;;;;;;9.85;2.90;;;8.60;99.90;;;;;;5083627;28;20105;-43
2023/02/02 06:30:53;;;;;;;10.00;2.80;;;8.60;99.90;;;;;;5082582;28;20036;-43
2023/02/02 06:33:19;;;;;;;8.25;2.60;;;8.60;99.90;;;;;;5083388;28;20028;-42
2023/02/02 06:35:44;;;;;;;12.40;3.53;;;8.60;99.90;;;;;;5083197;28;20059;-43
2023/02/02 06:38:10;;;;;;;11.10;2.97;;;8.60;99.90;;;;;;5082657;28;20024;-43
2023/02/02 06:40:35;;;;;;;15.00;3.40;;;8.60;99.90;;;;;;5082482;28;20039;-42
2023/02/02 06:43:02;;;;;;;7.90;2.63;;;8.50;99.90;;;;;;5082299;28;20035;-43
2023/02/02 06:45:29;;;;;;;12.98;3.78;;;8.50;99.90;;;;;;5081890;28;20036;-44
2023/02/02 06:48:02;;;;;;;11.90;3.30;;;8.50;99.90;;;;;;5082990;28;20024;-43
2023/02/02 06:50:28;;;;;;;10.07;2.80;;;8.50;99.90;;;;;;5082724;28;20016;-43
2023/02/02 06:52:53;;;;;;;9.95;2.75;;;8.50;99.90;;;;;;5081806;28;20391;-43
2023/02/02 06:55:19;;;;;;;6.75;2.38;;;8.50;99.90;;;;;;5082050;28;20111;-43
2023/02/02 06:57:45;;;;;;;12.82;2.72;;;8.50;99.90;;;;;;5082523;28;20111;-43
2023/02/02 07:00:14;;;;;;;11.88;2.97;;;8.50;99.90;;;;;;5081474;28;20038;-43
2023/02/02 07:02:44;;;;;;;13.15;3.22;;;8.50;99.90;;;;;;5080866;28;20024;-43
2023/02/02 07:05:09;;;;;;;9.70;3.15;;;8.50;99.90;;;;;;5081675;28;20024;-42
2023/02/02 07:07:35;;;;;;;14.05;3.55;;;8.50;99.90;;;;;;5082297;28;20059;-43
2023/02/02 07:10:00;;;;;;;11.52;3.38;;;8.50;99.90;;;;;;5082481;28;20027;-44
2023/02/02 07:12:26;;;;;;;11.55;2.90;;;8.40;99.90;;;;;;5081485;28;20034;-43
2023/02/02 07:14:52;;;;;;;9.27;3.08;;;8.40;99.90;;;;;;5082059;28;20028;-43
2023/02/02 07:17:20;;;;;;;11.55;3.20;;;8.40;99.90;;;;;;5081982;28;20024;-42
2023/02/02 07:19:46;;;;;;;15.48;3.38;;;8.40;99.90;;;;;;5081191;28;20035;-44
2023/02/02 07:22:14;;;;;;;10.27;2.70;;;8.40;99.90;;;;;;5081154;28;20040;-43
2023/02/02 07:24:40;;;;;;;8.95;2.60;;;8.40;99.90;;;;;;5082092;28;20051;-43
2023/02/02 07:27:08;;;;;;;11.20;2.70;;;8.40;99.90;;;;;;5081188;28;20804;-44
2023/02/02 07:29:35;;;;;;;11.93;3.00;;;8.40;99.90;;;;;;5082052;28;20031;-41
2023/02/02 07:32:00;;;;;;;11.52;2.47;;;8.30;99.90;;;;;;5081228;28;20068;-43
2023/02/02 07:34:26;;;;;;;11.45;2.80;;;8.40;99.90;;;;;;5081704;28;20036;-42
2023/02/02 07:36:51;;;;;;;11.02;3.28;;;8.40;99.90;;;;;;5081241;28;20032;-43
2023/02/02 07:39:23;;;;;;;12.00;3.38;;;8.40;99.90;;;;;;5082473;28;20043;-43
2023/02/02 07:41:48;;;;;;;11.88;3.63;;;8.40;99.90;;;;;;5081688;28;20039;-43
2023/02/02 07:44:15;;;;;;;14.27;3.47;;;8.40;99.90;;;;;;5082299;28;20016;-43
2023/02/02 07:46:44;;;;;;;13.32;3.70;;;8.40;99.90;;;;;;5081765;28;20028;-43
2023/02/02 07:49:13;;;;;;;11.13;3.42;;;8.40;99.90;;;;;;5080585;28;20028;-43
2023/02/02 07:51:39;;;;;;;9.32;2.92;;;8.40;99.90;;;;;;5081811;28;20024;-43
2023/02/02 07:54:04;;;;;;;10.60;3.05;;;8.40;99.90;;;;;;5080659;28;20789;-42
2023/02/02 07:56:30;;;;;;;11.85;3.35;;;8.40;99.90;;;;;;5081242;28;20034;-43
2023/02/02 07:58:56;;;;;;;13.57;3.70;;;8.40;99.90;;;;;;5080448;28;20035;-42
2023/02/02 08:01:24;;;;;;;13.30;4.15;;;8.40;99.90;;;;;;5081038;28;20500;-43
2023/02/02 08:03:52;;;;;;;12.63;3.60;;;8.40;99.90;;;;;;5080884;28;20074;-43
2023/02/02 08:06:19;;;;;;;16.88;4.80;;;8.40;99.90;;;;;;5081112;28;20820;-43
2023/02/02 08:08:46;;;;;;;13.40;3.75;;;8.40;99.90;;;;;;5080461;28;20105;-43
2023/02/02 08:11:13;;;;;;;16.73;4.10;;;8.40;99.90;;;;;;5081337;28;20035;-44
2023/02/02 08:13:39;;;;;;;15.48;3.92;;;8.40;99.90;;;;;;5080520;28;20464;-44
2023/02/02 08:16:06;;;;;;;13.73;3.95;;;8.40;99.90;;;;;;5080322;28;20490;-43
2023/02/02 08:18:33;;;;;;;14.65;4.28;;;8.40;99.90;;;;;;5080827;28;20020;-44
2023/02/02 08:20:59;;;;;;;15.43;4.10;;;8.40;99.90;;;;;;5080804;28;20044;-43
2023/02/02 08:23:25;;;;;;;15.43;3.92;;;8.40;99.90;;;;;;5080415;28;20031;-43
2023/02/02 08:25:52;;;;;;;13.35;3.78;;;8.50;99.90;;;;;;5081064;28;20032;-44
2023/02/02 08:28:17;;;;;;;14.98;4.47;;;8.50;99.90;;;;;;5081316;28;20067;-44
2023/02/02 08:30:43;;;;;;;14.05;4.40;;;8.50;99.90;;;;;;5080614;28;20131;-43
2023/02/02 08:33:09;;;;;;;12.25;3.30;;;8.50;99.90;;;;;;5080990;28;20032;-42
2023/02/02 08:35:42;;;;;;;14.20;3.45;;;8.50;99.90;;;;;;5084661;28;20066;-43
2023/02/02 08:38:08;;;;;;;10.18;3.97;;;8.50;99.90;;;;;;5084943;28;20474;-44
2023/02/02 08:40:34;;;;;;;17.33;3.80;;;8.50;99.90;;;;;;5084227;28;20036;-44
2023/02/02 08:42:59;;;;;;;13.05;3.58;;;8.60;99.90;;;;;;5085050;28;20545;-44
2023/02/02 08:45:25;;;;;;;12.60;3.35;;;8.60;99.90;;;;;;5084775;28;20051;-42
2023/02/02 08:47:51;;;;;;;11.95;3.72;;;8.60;99.90;;;;;;5084534;28;20031;-43
2023/02/02 08:50:17;;;;;;;16.35;4.22;;;8.70;99.90;;;;;;5084627;28;20023;-43
2023/02/02 08:52:43;;;;;;;10.07;3.80;;;8.70;99.90;;;;;;5084499;28;20028;-43
2023/02/02 08:55:08;;;;;;;14.02;3.40;;;8.70;99.90;;;;;;5083835;28;20618;-44
2023/02/02 08:57:34;;;;;;;13.88;3.20;;;8.70;99.90;;;;;;5083548;28;20027;-43
2023/02/02 09:00:00;;;;;;;11.07;3.33;;;8.80;99.90;;;;;;5084069;28;20418;-43
2023/02/02 09:02:25;;;;;;;12.20;3.55;;;8.80;99.90;;;;;;5084446;28;20134;-42
2023/02/02 09:04:51;;;;;;;16.50;3.60;;;8.80;99.90;;;;;;5083137;28;20111;-43
2023/02/02 09:07:16;;;;;;;12.73;3.70;;;8.70;99.90;;;;;;5084767;28;20074;-43
2023/02/02 09:09:42;;;;;;;13.88;3.78;;;8.80;99.90;;;;;;5084224;28;20111;-43
2023/02/02 09:12:08;;;;;;;12.13;3.45;;;8.80;99.90;;;;;;5083367;28;20119;-43
2023/02/02 09:14:33;;;;;;;11.90;3.45;;;8.90;99.90;;;;;;5084581;28;20028;-44
2023/02/02 09:16:59;;;;;;;12.13;3.00;;;8.90;99.90;;;;;;5084278;28;20023;-43
2023/02/02 09:19:24;;;;;;;7.82;2.65;;;8.90;99.90;;;;;;5084951;28;20830;-43
2023/02/02 09:21:50;;;;;;;13.15;3.70;;;9.00;99.90;;;;;;5084045;28;20075;-43
2023/02/02 09:24:17;;;;;;;10.32;3.05;;;9.00;99.90;;;;;;5084430;28;20020;-43
2023/02/02 09:26:43;;;;;;;12.52;3.50;;;9.00;99.90;;;;;;5083282;28;20584;-43
2023/02/02 09:29:14;;;;;;;13.32;3.08;;;9.10;99.90;;;;;;5083815;28;20024;-43
2023/02/02 09:31:40;;;;;;;12.63;3.03;;;9.10;99.90;;;;;;5083818;28;20020;-42
2023/02/02 09:34:11;;;;;;;13.95;3.42;;;9.10;99.90;;;;;;5083682;28;20027;-43
2023/02/02 09:36:38;;;;;;;11.98;3.22;;;9.10;99.90;;;;;;5083278;28;20495;-43
2023/02/02 09:39:04;;;;;;;13.13;2.95;;;9.10;99.90;;;;;;5083887;28;20028;-43
2023/02/02 09:41:39;;;;;;;13.32;3.22;;;9.20;99.90;;;;;;5082627;28;20064;-43
2023/02/02 09:44:44;;;;;;;22.15;4.57;;;9.20;99.90;;;;;;5083780;28;20043;-43
2023/02/02 09:47:20;;;;;;;13.63;3.42;;;9.30;99.90;;;;;;5083025;28;20075;-43
2023/02/02 09:49:57;;;;;;;17.15;3.70;;;9.20;99.90;;;;;;5082912;28;20467;-43
2023/02/02 09:52:39;;;;;;;8.90;2.70;;;9.20;99.90;;;;;;5083923;28;20107;-43
2023/02/02 09:55:25;;;;;;;10.63;2.95;;;9.20;99.90;;;;;;5083346;28;20032;-43
2023/02/02 09:58:40;;;;;;;7.68;2.70;;;9.30;99.90;;;;;;5083206;28;20028;-43
2023/02/02 10:01:13;;;;;;;14.18;2.85;;;9.30;99.90;;;;;;5057089;28;20040;-42
2023/02/02 10:03:44;;;;;;;13.48;3.35;;;9.30;99.90;;;;;;5083022;28;20039;-43
2023/02/02 10:06:23;;;;;;;9.77;2.70;;;9.30;99.90;;;;;;5083418;28;20828;-44
2023/02/02 10:08:58;;;;;;;11.90;3.05;;;9.30;99.90;;;;;;5082911;28;20030;-43
2023/02/02 10:11:40;;;;;;;13.32;3.13;;;9.30;99.90;;;;;;5083822;28;20081;-43
2023/02/02 10:14:16;;;;;;;15.27;3.43;;;9.30;99.90;;;;;;5083322;28;20016;-43
2023/02/02 10:16:42;;;;;;;11.75;3.05;;;9.30;99.90;;;;;;5082712;28;20032;-43
2023/02/02 10:19:13;;;;;;;14.73;3.03;;;9.40;99.90;;;;;;5083066;28;20645;-43
2023/02/02 10:22:00;;;;;;;12.27;3.47;;;9.40;99.90;;;;;;5082380;28;20570;-43
2023/02/02 10:24:28;;;;;;;10.95;3.13;;;9.40;99.90;;;;;;5082460;28;20115;-42
2023/02/02 10:27:07;;;;;;;12.95;3.05;;;9.40;99.90;;;;;;5083404;28;20032;-44
2023/02/02 10:30:18;;;;;;;13.77;2.97;;;9.40;99.90;;;;;;5081788;28;20020;-43
2023/02/02 10:33:04;;;;;;;10.82;2.38;;;9.40;99.90;;;;;;4999393;28;20101;-43
2023/02/02 10:36:02;;;;;;;10.52;3.20;;;9.40;99.90;;;;;;4999595;28;20124;-43
2023/02/02 10:38:50;;;;;;;12.95;3.10;;;9.40;99.90;;;;;;5071531;28;20040;-43
2023/02/02 10:41:15;;;;;;;8.82;2.63;;;9.40;99.90;;;;;;5083118;28;20391;-43
2023/02/02 10:44:02;;;;;;;12.40;3.13;;;9.40;99.90;;;;;;5082268;28;20033;-43
2023/02/02 10:46:39;;;;;;;10.68;2.97;;;9.40;99.90;;;;;;5082648;28;20040;-44
2023/02/02 10:49:20;;;;;;;11.55;2.65;;;9.40;99.90;;;;;;5082844;28;20016;-43
2023/02/02 10:52:05;;;;;;;11.27;2.80;;;9.40;99.90;;;;;;5081837;28;20379;-43
2023/02/02 10:54:45;;;;;;;11.20;2.80;;;9.40;99.90;;;;;;5082880;28;20102;-43
2023/02/02 10:57:15;;;;;;;12.70;2.90;;;9.50;99.90;;;;;;5061586;28;20898;-42
2023/02/02 10:59:51;;;;;;;7.97;2.55;;;9.50;99.90;;;;;;5075608;28;20395;-42
2023/02/02 11:02:17;;;;;;;13.20;3.60;;;9.50;99.90;;;;;;5082842;28;20147;-43
2023/02/02 11:07:26;;;;;;;15.52;4.53;;;9.60;99.90;;;;;;5083001;28;20514;-42
2023/02/02 11:09:52;;;;;;;11.55;3.28;;;9.50;99.90;;;;;;5081835;28;20032;-43
2023/02/02 11:12:26;;;;;;;10.65;3.15;;;9.50;99.90;;;;;;5082284;28;20030;-43
2023/02/02 11:14:55;;;;;;;13.57;3.42;;;9.50;99.90;;;;;;5081950;28;20082;-43
2023/02/02 11:17:23;;;;;;;13.57;3.35;;;9.50;99.90;;;;;;5082114;28;20108;-44
2023/02/02 11:19:50;;;;;;;9.20;2.83;;;9.50;99.90;;;;;;5081468;28;20066;-43
2023/02/02 11:22:25;;;;;;;8.40;2.75;;;9.50;99.90;;;;;;5082486;28;20032;-42
2023/02/02 11:24:53;;;;;;;9.05;2.90;;;9.50;99.90;;;;;;5081752;28;20028;-43
2023/02/02 11:27:25;;;;;;;8.57;2.47;;;9.50;99.90;;;;;;5081391;28;20021;-43
2023/02/02 11:29:58;;;;;;;14.05;2.95;;;9.50;99.90;;;;;;5081914;28;20624;-42
2023/02/02 11:32:31;;;;;;;10.48;3.00;;;9.50;99.90;;;;;;5081964;28;20024;-43
2023/02/02 11:35:03;;;;;;;14.73;3.65;;;9.50;99.90;;;;;;5081655;28;20047;-42
2023/02/02 11:37:30;;;;;;;9.35;3.17;;;9.50;99.90;;;;;;5071153;28;20078;-43
2023/02/02 11:40:26;;;;;;;12.02;2.88;;;9.50;99.90;;;;;;5080901;28;20414;-41
2023/02/02 11:42:54;;;;;;;14.00;3.42;;;9.40;99.90;;;;;;5073285;28;20032;-43
2023/02/02 11:45:26;;;;;;;12.27;3.20;;;9.50;99.90;;;;;;5081885;28;20026;-42
2023/02/02 11:47:51;;;;;;;10.90;3.25;;;9.50;99.90;;;;;;5081454;28;20165;-42
2023/02/02 11:50:25;;;;;;;10.73;2.90;;;9.40;99.90;;;;;;5082172;28;20619;-42
2023/02/02 11:52:50;;;;;;;10.90;2.83;;;9.40;99.90;;;;;;5081554;28;20024;-43
2023/02/02 11:55:20;;;;;;;7.85;2.50;;;9.50;99.90;;;;;;5080260;28;20479;-43
2023/02/02 11:58:26;;;;;;;6.95;2.50;;;9.50;99.90;;;;;;5081230;28;20492;-43
2023/02/02 12:00:57;;;;;;;13.95;2.72;;;9.50;99.90;;;;;;5080279;28;20024;-44
2023/02/02 12:03:31;;;;;;;11.50;2.83;;;9.50;99.90;;;;;;5081359;28;20042;-43
2023/02/02 12:05:57;;;;;;;8.98;2.35;;;9.50;99.90;;;;;;5081249;28;20780;-42
2023/02/02 12:08:23;;;;;;;12.25;2.83;;;9.50;99.90;;;;;;5080099;28;20028;-44
2023/02/02 12:10:58;;;;;;;8.23;2.45;;;9.50;99.90;;;;;;5081655;28;20027;-43
2023/02/02 12:13:42;;;;;;;9.45;2.97;;;9.50;99.90;;;;;;5081975;28;20111;-43
2023/02/02 12:16:29;;;;;;;9.20;2.50;;;9.50;99.90;;;;;;5080011;28;20024;-43
2023/02/02 12:19:15;;;;;;;8.68;2.08;;;9.50;99.90;;;;;;5070291;28;20525;-42
2023/02/02 12:22:05;;;;;;;13.60;2.17;;;9.50;99.90;;;;;;5079709;28;21026;-43
2023/02/02 12:24:35;;;;;;;9.05;2.45;;;9.50;99.90;;;;;;5080569;28;20107;-43
2023/02/02 12:27:16;;;;;;;10.38;2.25;;;9.50;99.90;;;;;;5080870;28;20131;-43
2023/02/02 12:30:07;;;;;;;7.85;2.10;;;9.50;99.90;;;;;;5080718;28;20079;-43
2023/02/02 12:32:33;;;;;;;9.52;2.05;;;9.50;99.90;;;;;;5081157;28;20391;-43
2023/02/02 12:35:04;;;;;;;12.20;2.50;;;9.50;99.90;;;;;;5080405;28;20040;-42
2023/02/02 12:37:38;;;;;;;12.00;2.63;;;9.50;99.90;;;;;;5079428;28;20021;-43
2023/02/02 12:40:20;;;;;;;8.30;2.22;;;9.50;99.90;;;;;;5080338;28;20046;-43
2023/02/02 12:43:03;;;;;;;8.82;2.30;;;9.50;99.90;;;;;;5079853;28;20526;-42
2023/02/02 12:45:44;;;;;;;9.45;2.20;;;9.50;99.90;;;;;;5080990;28;20657;-43
2023/02/02 12:48:17;;;;;;;12.82;2.40;;;9.50;99.90;;;;;;5080541;28;20020;-42
2023/02/02 12:51:30;;;;;;;9.63;2.13;;;9.50;99.90;;;;;;5080795;28;20031;-43
2023/02/02 12:53:58;;;;;;;8.23;2.23;;;9.50;99.90;;;;;;5081076;28;20024;-43
2023/02/02 12:56:45;;;;;;;9.02;2.15;;;9.50;99.90;;;;;;5081961;28;20138;-42
2023/02/02 12:59:12;;;;;;;8.85;2.38;;;9.50;99.90;;;;;;5080980;28;20437;-43
2023/02/02 13:01:44;;;;;;;9.88;2.28;;;9.40;99.90;;;;;;5080010;28;20827;-42
2023/02/02 13:04:57;;;;;;;8.98;2.20;;;9.40;99.90;;;;;;5079909;28;20028;-43
2023/02/02 13:07:27;;;;;;;7.50;1.95;;;9.40;99.90;;;;;;5060958;28;20036;-43
2023/02/02 13:10:10;;;;;;;9.15;1.75;;;9.40;99.90;;;;;;5080140;28;20024;-42
2023/02/02 13:12:56;;;;;;;10.57;2.38;;;9.40;99.90;;;;;;5080246;28;20391;-43
2023/02/02 13:15:30;;;;;;;10.23;2.30;;;9.30;99.90;;;;;;5080915;28;20055;-43